Time;durP1;ratioP1;P1;durP2;ratioP2;P2;SDS_P1;SDS_P2;PMS_P1;PMS_P2;Temp;Humidity;BMP_temperature;BMP_pressure;BME280_temperature;BME280_humidity;BME280_pressure;Samples;Min_cycle;Max_cycle;Signal;HPM_P1;HPM_P2
2021/08/29 00:00:11;;;;;;;;;;;;;;;29.32;45.31;100032.06;5077487;28;717;-42
2021/08/29 00:02:36;;;;;;;;;;;;;;;29.36;45.16;100030.59;5077251;28;835;-42
2021/08/29 00:05:02;;;;;;;;;;;;;;;29.26;45.29;100024.81;5077168;28;1913;-41
2021/08/29 00:07:27;;;;;;;;;;;;;;;29.20;45.52;100029.19;5076750;28;772;-35
2021/08/29 00:09:52;;;;;;;;;;;;;;;29.28;45.17;100026.25;5077346;28;811;-39
2021/08/29 00:12:18;;;;;;;;;;;;;;;29.28;45.10;100017.31;5085876;28;1018;-42
2021/08/29 00:14:43;;;;;;;;;;;;;;;29.37;45.01;100012.44;5097185;28;776;-40
2021/08/29 00:17:08;;;;;;;;;;;;;;;29.40;45.32;100012.00;5097283;28;775;-34
2021/08/29 00:19:33;;;;;;;;;;;;;;;29.39;45.42;100011.22;5097071;28;816;-35
2021/08/29 00:21:59;;;;;;;;;;;;;;;29.32;45.50;100013.09;5097005;28;784;-43
2021/08/29 00:24:24;;;;;;;;;;;;;;;29.37;45.38;100010.59;5096952;28;1964;-37
2021/08/29 00:26:49;;;;;;;;;;;;;;;29.38;45.53;100009.53;5092152;28;946;-45
2021/08/29 00:29:15;;;;;;;;;;;;;;;29.28;45.62;100007.28;5077150;28;831;-41
2021/08/29 00:31:40;;;;;;;;;;;;;;;29.36;45.66;100010.81;5076054;28;784;-43
2021/08/29 00:34:05;;;;;;;;;;;;;;;29.30;45.58;100007.91;5076042;28;829;-33
2021/08/29 00:36:30;;;;;;;;;;;;;;;29.28;45.87;100010.00;5077131;28;783;-43
2021/08/29 00:38:56;;;;;;;;;;;;;;;29.30;45.56;100013.31;5076305;28;878;-34
2021/08/29 00:41:21;;;;;;;;;;;;;;;29.36;45.65;100021.63;5077697;28;994;-33
2021/08/29 00:43:46;;;;;;;;;;;;;;;29.32;45.63;100019.38;5096639;28;1902;-36
2021/08/29 00:46:11;;;;;;;;;;;;;;;29.35;45.72;100023.50;5096900;28;726;-44
2021/08/29 00:48:38;;;;;;;;;;;;;;;29.33;45.63;100022.88;5096751;28;1239;-35
2021/08/29 00:51:03;;;;;;;;;;;;;;;29.34;45.75;100019.16;5077051;28;1726;-38
2021/08/29 00:53:32;;;;;;;;;;;;;;;29.29;45.76;100019.81;5076314;28;817;-36
2021/08/29 00:55:57;;;;;;;;;;;;;;;29.30;45.64;100005.19;5076583;28;798;-32
2021/08/29 00:58:26;;;;;;;;;;;;;;;29.33;45.73;100012.88;5094209;28;1005;-41
2021/08/29 01:00:52;;;;;;;;;;;;;;;29.26;45.77;100008.56;5095031;28;1021;-33
2021/08/29 01:03:20;;;;;;;;;;;;;;;29.27;45.77;100011.06;5096507;28;1973;-45
2021/08/29 01:05:51;;;;;;;;;;;;;;;29.23;45.85;100004.38;5096660;28;943;-37
2021/08/29 01:08:17;;;;;;;;;;;;;;;29.22;45.96;100008.16;5095350;28;748;-46
2021/08/29 01:10:51;;;;;;;;;;;;;;;29.30;45.64;100007.06;5094900;28;839;-37
2021/08/29 01:13:35;;;;;;;;;;;;;;;29.33;45.66;100018.31;5077760;28;1394;-45
2021/08/29 01:16:01;;;;;;;;;;;;;;;29.33;45.71;100012.88;5075991;28;847;-46
2021/08/29 01:18:27;;;;;;;;;;;;;;;29.21;45.90;100015.44;5075383;28;768;-35
2021/08/29 01:21:04;;;;;;;;;;;;;;;29.33;45.90;100012.88;5075151;28;865;-32
2021/08/29 01:23:30;;;;;;;;;;;;;;;29.25;45.85;100013.13;5075675;28;1975;-41
2021/08/29 01:25:56;;;;;;;;;;;;;;;29.37;45.59;100007.03;5076486;28;810;-40
2021/08/29 01:28:22;;;;;;;;;;;;;;;29.27;45.81;100013.75;5092727;28;1007;-46
2021/08/29 01:30:48;;;;;;;;;;;;;;;29.35;45.70;99996.41;5094501;28;898;-35
2021/08/29 01:33:13;;;;;;;;;;;;;;;29.32;45.99;100002.28;5094656;28;827;-37
2021/08/29 01:35:38;;;;;;;;;;;;;;;29.38;45.77;99993.28;5095276;28;808;-38
2021/08/29 01:38:04;;;;;;;;;;;;;;;29.37;45.97;99990.78;5096042;28;870;-36
2021/08/29 01:40:30;;;;;;;;;;;;;;;29.35;46.08;99985.59;5096480;28;786;-45
2021/08/29 01:42:55;;;;;;;;;;;;;;;29.37;46.18;99977.22;5081983;28;1016;-36
2021/08/29 01:45:20;;;;;;;;;;;;;;;29.32;46.33;99967.91;5076315;28;1898;-46
2021/08/29 01:47:46;;;;;;;;;;;;;;;29.37;46.36;99969.09;5079914;28;981;-35
2021/08/29 01:50:11;;;;;;;;;;;;;;;29.38;46.35;99958.06;5091762;28;1589;-46
2021/08/29 01:52:36;;;;;;;;;;;;;;;29.43;46.29;99958.22;5099679;28;843;-46
2021/08/29 01:55:02;;;;;;;;;;;;;;;29.33;46.73;99956.00;5099876;28;764;-46
2021/08/29 01:57:27;;;;;;;;;;;;;;;29.38;46.55;99951.81;5089997;28;1021;-46
2021/08/29 01:59:52;;;;;;;;;;;;;;;29.49;46.38;99956.53;5079314;28;740;-39
2021/08/29 02:02:18;;;;;;;;;;;;;;;29.38;46.58;99949.13;5079576;28;847;-46
2021/08/29 02:04:43;;;;;;;;;;;;;;;29.40;46.66;99944.28;5079440;28;1913;-38
2021/08/29 02:07:11;;;;;;;;;;;;;;;29.32;46.95;99946.22;5077929;28;1311;-34
2021/08/29 02:09:37;;;;;;;;;;;;;;;29.33;47.07;99945.16;5080249;28;800;-36
2021/08/29 02:12:02;;;;;;;;;;;;;;;29.31;47.27;99941.84;5086523;28;967;-46
2021/08/29 02:14:29;;;;;;;;;;;;;;;29.32;47.13;99939.97;5099366;28;732;-32
2021/08/29 02:16:55;;;;;;;;;;;;;;;29.34;47.25;99937.88;5098598;28;839;-35
2021/08/29 02:19:22;;;;;;;;;;;;;;;29.33;47.20;99939.75;5099433;28;807;-46
2021/08/29 02:21:47;;;;;;;;;;;;;;;29.38;47.13;99936.38;5099214;28;791;-36
2021/08/29 02:24:12;;;;;;;;;;;;;;;29.39;47.18;99929.09;5097813;28;1964;-46
2021/08/29 02:26:38;;;;;;;;;;;;;;;29.35;47.30;99936.81;5096002;28;953;-35
2021/08/29 02:29:03;;;;;;;;;;;;;;;29.39;47.26;99934.50;5077380;28;938;-38
2021/08/29 02:31:29;;;;;;;;;;;;;;;29.38;47.47;99922.03;5060508;28;974;-33
2021/08/29 02:33:54;;;;;;;;;;;;;;;29.43;47.26;99930.28;5077454;28;832;-38
2021/08/29 02:36:19;;;;;;;;;;;;;;;29.39;47.43;99932.63;5079096;28;751;-42
2021/08/29 02:38:45;;;;;;;;;;;;;;;29.41;47.62;99927.81;5077968;28;799;-34
2021/08/29 02:41:11;;;;;;;;;;;;;;;29.38;47.79;99917.41;5078691;28;760;-36
2021/08/29 02:43:36;;;;;;;;;;;;;;;29.40;47.67;99914.47;5097493;28;1977;-32
2021/08/29 02:46:02;;;;;;;;;;;;;;;29.35;47.95;99912.44;5097885;28;816;-43
2021/08/29 02:48:27;;;;;;;;;;;;;;;29.40;47.73;99906.34;5097602;28;1272;-35
2021/08/29 02:50:52;;;;;;;;;;;;;;;29.39;47.75;99908.25;5079230;28;1696;-44
2021/08/29 02:53:18;;;;;;;;;;;;;;;29.49;47.54;99910.47;5078615;28;723;-37
2021/08/29 02:55:46;;;;;;;;;;;;;;;29.49;47.77;99909.63;5077089;28;809;-39
2021/08/29 02:58:12;;;;;;;;;;;;;;;29.49;47.56;99905.06;5094647;28;951;-36
2021/08/29 03:00:37;;;;;;;;;;;;;;;29.58;47.26;99909.16;5099229;28;776;-36
2021/08/29 03:03:02;;;;;;;;;;;;;;;29.45;47.67;99904.66;5098352;28;561;-36
2021/08/29 03:05:28;;;;;;;;;;;;;;;29.40;48.06;99909.91;5096756;28;1917;-37
2021/08/29 03:07:53;;;;;;;;;;;;;;;29.41;48.04;99908.03;5098379;28;764;-40
2021/08/29 03:10:19;;;;;;;;;;;;;;;29.32;48.34;99910.16;5098519;28;783;-37
2021/08/29 03:12:44;;;;;;;;;;;;;;;29.45;47.93;99903.81;5086134;28;1025;-39
2021/08/29 03:15:10;;;;;;;;;;;;;;;29.34;48.11;99906.19;5077542;28;887;-39
2021/08/29 03:17:36;;;;;;;;;;;;;;;29.55;47.96;99906.03;5078385;28;724;-36
2021/08/29 03:20:01;;;;;;;;;;;;;;;29.54;47.67;99901.69;5078349;28;767;-43
2021/08/29 03:22:27;;;;;;;;;;;;;;;29.57;47.13;99902.09;5077911;28;774;-37
2021/08/29 03:24:52;;;;;;;;;;;;;;;29.48;47.52;99911.50;5077502;28;1898;-36
2021/08/29 03:27:17;;;;;;;;;;;;;;;29.46;47.74;99916.34;5086742;28;963;-33
2021/08/29 03:29:43;;;;;;;;;;;;;;;29.24;45.99;99910.44;5098270;28;709;-35
2021/08/29 03:32:08;;;;;;;;;;;;;;;28.77;48.51;99916.88;5097912;28;810;-35
2021/08/29 03:34:34;;;;;;;;;;;;;;;28.81;49.77;99927.06;5098007;28;894;-43
2021/08/29 03:36:59;;;;;;;;;;;;;;;28.75;50.66;99922.50;5097812;28;763;-38
2021/08/29 03:39:25;;;;;;;;;;;;;;;28.76;50.63;99917.94;5098042;28;759;-45
2021/08/29 03:41:50;;;;;;;;;;;;;;;28.75;50.87;99911.69;5092780;28;989;-38
2021/08/29 03:44:16;;;;;;;;;;;;;;;28.50;51.93;99915.09;5076679;28;1890;-37
2021/08/29 03:46:41;;;;;;;;;;;;;;;28.51;51.85;99919.47;5077474;28;870;-36
2021/08/29 03:49:07;;;;;;;;;;;;;;;28.43;51.99;99919.69;5081070;28;1621;-40
2021/08/29 03:51:33;;;;;;;;;;;;;;;28.53;51.77;99924.69;5097533;28;728;-43
2021/08/29 03:53:59;;;;;;;;;;;;;;;28.56;51.74;99926.97;5097672;28;832;-44
2021/08/29 03:56:24;;;;;;;;;;;;;;;28.00;53.38;99935.34;5097473;28;973;-43
2021/08/29 03:58:49;;;;;;;;;;;;;;;27.14;56.55;99928.56;5097160;28;854;-39
2021/08/29 04:01:15;;;;;;;;;;;;;;;26.62;58.43;99933.53;5097581;28;764;-43
2021/08/29 04:03:40;;;;;;;;;;;;;;;27.48;54.22;99928.66;5096173;28;1971;-40
2021/08/29 04:06:05;;;;;;;;;;;;;;;28.09;46.19;99925.97;5088880;28;803;-29
2021/08/29 04:08:34;;;;;;;;;;;;;;;27.87;45.13;99933.50;5090010;28;796;-35
2021/08/29 04:11:00;;;;;;;;;;;;;;;28.66;48.34;99931.94;5075778;28;820;-39
2021/08/29 04:13:25;;;;;;;;;;;;;;;29.13;49.25;99926.31;5093974;28;952;-42
2021/08/29 04:15:51;;;;;;;;;;;;;;;29.45;48.82;99931.75;5080023;28;819;-42
2021/08/29 04:18:16;;;;;;;;;;;;;;;28.99;50.47;99927.44;5076312;28;763;-41
2021/08/29 04:20:41;;;;;;;;;;;;;;;28.34;49.63;99938.03;5076675;28;871;-40
2021/08/29 04:23:07;;;;;;;;;;;;;;;26.95;40.12;99923.91;5077182;28;754;-40
2021/08/29 04:25:32;;;;;;;;;;;;;;;27.87;39.31;99930.78;5077126;28;2216;-42
2021/08/29 04:27:58;;;;;;;;;;;;;;;28.62;41.67;99934.22;5077279;28;879;-30
2021/08/29 04:30:23;;;;;;;;;;;;;;;28.68;39.45;99927.94;5075639;28;1515;-34
2021/08/29 04:32:49;;;;;;;;;;;;;;;22.51;52.09;99927.38;5077335;28;688;-33
2021/08/29 04:35:14;;;;;;;;;;;;;;;19.89;51.68;99919.94;5075268;28;779;-34
2021/08/29 04:37:40;;;;;;;;;;;;;;;18.68;50.32;99912.88;5075395;28;760;-35
2021/08/29 04:40:05;;;;;;;;;;;;;;;17.86;49.64;99908.81;5076920;28;819;-37
2021/08/29 04:42:31;;;;;;;;;;;;;;;17.53;48.42;99905.63;5086756;28;1099;-24
2021/08/29 04:44:56;;;;;;;;;;;;;;;16.77;47.85;99903.34;5076350;28;1957;-23
2021/08/29 04:47:21;;;;;;;;;;;;;;;17.02;50.88;99897.66;5076563;28;803;-22
2021/08/29 04:49:47;;;;;;;;;;;;;;;18.23;51.42;99896.59;5075602;28;1098;-23
2021/08/29 04:52:12;;;;;;;;;;;;;;;18.33;52.26;99906.38;5076731;28;752;-25
2021/08/29 04:54:37;;;;;;;;;;;;;;;18.40;52.95;99904.81;5076912;28;794;-24
2021/08/29 04:57:02;;;;;;;;;;;;;;;18.43;53.18;99906.34;5082625;28;958;-24
2021/08/29 04:59:28;;;;;;;;;;;;;;;18.47;53.37;99902.41;5096840;28;787;-23
2021/08/29 05:01:53;;;;;;;;;;;;;;;18.13;54.06;99898.44;5096616;28;873;-21
2021/08/29 05:04:19;;;;;;;;;;;;;;;18.26;55.70;99897.28;5096103;28;1909;-27
2021/08/29 05:06:44;;;;;;;;;;;;;;;18.33;56.16;99901.06;5096840;28;890;-23
2021/08/29 05:09:09;;;;;;;;;;;;;;;18.57;55.90;99903.22;5096733;28;866;-24
2021/08/29 05:11:35;;;;;;;;;;;;;;;18.49;56.37;99903.09;5092826;28;1313;-26
2021/08/29 05:14:00;;;;;;;;;;;;;;;18.38;56.57;99901.47;5076831;28;816;-23
2021/08/29 05:16:26;;;;;;;;;;;;;;;18.26;57.16;99900.81;5076103;28;1152;-24
2021/08/29 05:18:51;;;;;;;;;;;;;;;18.34;57.60;99887.59;5076041;28;823;-25
2021/08/29 05:21:16;;;;;;;;;;;;;;;18.44;57.94;99892.91;5080145;28;1315;-26
2021/08/29 05:23:42;;;;;;;;;;;;;;;18.51;59.44;99889.63;5080319;28;1910;-25
2021/08/29 05:26:07;;;;;;;;;;;;;;;18.79;61.15;99889.66;5086496;28;1447;-24
2021/08/29 05:28:32;;;;;;;;;;;;;;;18.69;61.17;99885.22;5086618;28;958;-29
2021/08/29 05:30:58;;;;;;;;;;;;;;;18.73;60.37;99883.09;5082962;28;905;-34
2021/08/29 05:33:23;;;;;;;;;;;;;;;18.56;60.24;99890.91;5079663;28;945;-28
2021/08/29 05:35:48;;;;;;;;;;;;;;;18.58;60.64;99883.56;5080137;28;763;-34
2021/08/29 05:38:13;;;;;;;;;;;;;;;18.77;60.45;99884.47;5080212;28;818;-35
2021/08/29 05:40:39;;;;;;;;;;;;;;;18.74;60.13;99879.44;5079849;28;772;-25
2021/08/29 05:43:04;;;;;;;;;;;;;;;18.73;59.91;99877.78;5079502;28;1009;-25
2021/08/29 05:45:29;;;;;;;;;;;;;;;18.74;60.44;99879.44;5079795;28;1898;-31
2021/08/29 05:47:55;;;;;;;;;;;;;;;18.71;60.17;99882.41;5079641;28;801;-27
2021/08/29 05:50:20;;;;;;;;;;;;;;;18.67;60.46;99884.53;5079497;28;1091;-33
2021/08/29 05:52:45;;;;;;;;;;;;;;;18.73;60.02;99886.59;5079546;28;767;-34
2021/08/29 05:55:10;;;;;;;;;;;;;;;18.90;59.41;99883.31;5079526;28;733;-31
2021/08/29 05:57:37;;;;;;;;;;;;;;;18.75;59.78;99880.28;5090148;28;1061;-33
2021/08/29 06:00:03;;;;;;;;;;;;;;;18.75;59.88;99885.63;5099611;28;797;-31
2021/08/29 06:02:28;;;;;;;;;;;;;;;18.73;59.60;99894.59;5099873;28;724;-32
2021/08/29 06:04:53;;;;;;;;;;;;;;;18.48;60.43;99885.47;5099271;28;1995;-26
2021/08/29 06:07:19;;;;;;;;;;;;;;;18.43;60.83;99883.25;5099598;28;733;-24
2021/08/29 06:09:44;;;;;;;;;;;;;;;18.53;60.52;99871.69;5099113;28;906;-25
2021/08/29 06:12:09;;;;;;;;;;;;;;;18.64;60.25;99863.50;5091353;28;949;-26
2021/08/29 06:14:35;;;;;;;;;;;;;;;19.41;57.55;99872.19;5078544;28;968;-24
2021/08/29 06:17:00;;;;;;;;;;;;;;;20.35;54.19;99871.72;5079161;28;775;-27
2021/08/29 06:19:25;;;;;;;;;;;;;;;20.71;52.65;99872.53;5078482;28;755;-27
2021/08/29 06:21:51;;;;;;;;;;;;;;;20.93;51.97;99871.16;5083624;28;1495;-26
2021/08/29 06:24:16;;;;;;;;;;;;;;;20.85;52.22;99861.25;5084822;28;1902;-25
2021/08/29 06:26:41;;;;;;;;;;;;;;;20.93;52.11;99857.78;5082109;28;998;-23
2021/08/29 06:29:06;;;;;;;;;;;;;;;21.15;51.42;99845.59;5098829;28;815;-28
2021/08/29 06:31:32;;;;;;;;;;;;;;;20.93;52.10;99849.75;5084590;28;878;-26
2021/08/29 06:33:57;;;;;;;;;;;;;;;21.05;51.75;99852.97;5078884;28;759;-26
2021/08/29 06:36:22;;;;;;;;;;;;;;;21.17;51.59;99850.78;5078796;28;787;-25
2021/08/29 06:38:47;;;;;;;;;;;;;;;21.11;51.77;99846.09;5078560;28;827;-26
2021/08/29 06:41:13;;;;;;;;;;;;;;;21.19;51.69;99847.97;5078472;28;764;-26
2021/08/29 06:43:38;;;;;;;;;;;;;;;21.22;51.67;99853.00;5097677;28;1901;-24
2021/08/29 06:46:03;;;;;;;;;;;;;;;20.97;50.93;99842.25;5098630;28;840;-30
2021/08/29 06:48:29;;;;;;;;;;;;;;;20.99;50.07;99843.75;5098180;28;1360;-26
2021/08/29 06:50:54;;;;;;;;;;;;;;;20.98;49.81;99835.91;5098551;28;787;-28
2021/08/29 06:53:19;;;;;;;;;;;;;;;20.87;50.18;99842.38;5098653;28;851;-25
2021/08/29 06:55:45;;;;;;;;;;;;;;;21.02;50.00;99843.41;5098105;28;804;-25
2021/08/29 06:58:10;;;;;;;;;;;;;;;20.84;50.41;99851.53;5081732;28;953;-28
2021/08/29 07:00:35;;;;;;;;;;;;;;;21.03;49.39;99841.59;5078678;28;799;-24
2021/08/29 07:03:00;;;;;;;;;;;;;;;21.21;48.48;99844.13;5078158;28;840;-29
2021/08/29 07:05:26;;;;;;;;;;;;;;;21.27;48.37;99846.13;5077995;28;1906;-31
2021/08/29 07:07:52;;;;;;;;;;;;;;;21.25;47.97;99847.31;5078072;28;980;-27
2021/08/29 07:10:17;;;;;;;;;;;;;;;21.23;47.82;99847.47;5077535;28;1460;-24
2021/08/29 07:12:42;;;;;;;;;;;;;;;21.05;48.46;99839.59;5081132;28;875;-25
2021/08/29 07:15:08;;;;;;;;;;;;;;;21.06;48.70;99841.25;5078284;28;800;-25
2021/08/29 07:17:33;;;;;;;;;;;;;;;21.04;48.23;99837.91;5077325;28;945;-27
2021/08/29 07:19:58;;;;;;;;;;;;;;;21.29;47.63;99840.63;5077670;28;701;-27
2021/08/29 07:22:23;;;;;;;;;;;;;;;21.08;47.57;99830.41;5077827;28;764;-26
2021/08/29 07:24:49;;;;;;;;;;;;;;;21.14;47.29;99835.91;5077386;28;1981;-28
2021/08/29 07:27:14;;;;;;;;;;;;;;;21.04;47.33;99828.06;5085662;28;935;-26
2021/08/29 07:29:39;;;;;;;;;;;;;;;20.92;47.88;99832.00;5097949;28;775;-26
2021/08/29 07:32:05;;;;;;;;;;;;;;;21.04;47.57;99835.22;5097525;28;783;-27
2021/08/29 07:34:30;;;;;;;;;;;;;;;21.11;47.30;99838.09;5097602;28;819;-27
2021/08/29 07:36:55;;;;;;;;;;;;;;;21.21;47.16;99838.78;5097509;28;848;-28
2021/08/29 07:39:20;;;;;;;;;;;;;;;21.00;47.24;99828.56;5097319;28;850;-25
2021/08/29 07:41:46;;;;;;;;;;;;;;;20.90;48.03;99834.00;5093466;28;1040;-27
2021/08/29 07:44:11;;;;;;;;;;;;;;;21.00;47.44;99831.22;5076234;28;1971;-25
2021/08/29 07:46:36;;;;;;;;;;;;;;;20.92;47.26;99835.53;5077537;28;767;-25
2021/08/29 07:49:02;;;;;;;;;;;;;;;21.06;46.91;99843.09;5076539;28;1113;-26
2021/08/29 07:51:27;;;;;;;;;;;;;;;21.01;47.13;99835.56;5077027;28;808;-26
2021/08/29 07:53:52;;;;;;;;;;;;;;;21.09;46.87;99830.22;5077059;28;867;-29
2021/08/29 07:56:18;;;;;;;;;;;;;;;20.92;46.90;99840.88;5076729;28;994;-30
2021/08/29 07:58:43;;;;;;;;;;;;;;;21.08;46.58;99841.94;5097438;28;811;-28
2021/08/29 08:01:08;;;;;;;;;;;;;;;21.02;47.01;99838.06;5096879;28;858;-26
2021/08/29 08:03:34;;;;;;;;;;;;;;;20.84;47.21;99840.84;5097000;28;1898;-28
2021/08/29 08:06:02;;;;;;;;;;;;;;;20.74;47.97;99832.13;5097368;28;755;-28
2021/08/29 08:08:27;;;;;;;;;;;;;;;20.70;47.74;99825.44;5096736;28;862;-28
2021/08/29 08:10:52;;;;;;;;;;;;;;;20.88;46.78;99826.16;5096823;28;760;-29
2021/08/29 08:13:18;;;;;;;;;;;;;;;20.97;46.47;99826.22;5079944;28;946;-26
2021/08/29 08:15:43;;;;;;;;;;;;;;;20.86;46.61;99819.28;5076352;28;1063;-29
2021/08/29 08:18:08;;;;;;;;;;;;;;;20.95;46.45;99821.03;5076660;28;756;-29
2021/08/29 08:20:33;;;;;;;;;;;;;;;20.87;46.43;99819.13;5076574;28;752;-27
2021/08/29 08:22:59;;;;;;;;;;;;;;;20.92;46.45;99822.19;5076478;28;787;-25
2021/08/29 08:25:24;;;;;;;;;;;;;;;20.78;46.97;99822.78;5076472;28;1898;-28
2021/08/29 08:27:49;;;;;;;;;;;;;;;20.83;47.51;99815.13;5089694;28;990;-27
2021/08/29 08:30:15;;;;;;;;;;;;;;;20.92;46.86;99819.50;5096277;28;867;-26
2021/08/29 08:32:40;;;;;;;;;;;;;;;20.95;46.42;99814.84;5096552;28;754;-29
2021/08/29 08:35:05;;;;;;;;;;;;;;;21.02;46.26;99813.19;5096742;28;898;-30
2021/08/29 08:37:31;;;;;;;;;;;;;;;20.85;46.67;99804.25;5096385;28;526;-28
2021/08/29 08:39:56;;;;;;;;;;;;;;;21.07;46.27;99812.69;5096202;28;853;-27
2021/08/29 08:42:21;;;;;;;;;;;;;;;21.16;46.59;99806.34;5087167;28;997;-29
2021/08/29 08:44:47;;;;;;;;;;;;;;;21.21;46.53;99798.66;5074525;28;1914;-30
2021/08/29 08:47:16;;;;;;;;;;;;;;;20.99;46.91;99800.13;5075936;28;787;-27
2021/08/29 08:49:42;;;;;;;;;;;;;;;20.90;48.42;99793.91;5075860;28;1272;-29
2021/08/29 08:52:08;;;;;;;;;;;;;;;21.19;47.39;99795.31;5076299;28;878;-26
2021/08/29 08:54:34;;;;;;;;;;;;;;;21.09;47.65;99798.13;5075672;28;773;-28
2021/08/29 08:56:59;;;;;;;;;;;;;;;21.24;46.87;99795.66;5081909;28;990;-29
2021/08/29 08:59:24;;;;;;;;;;;;;;;21.13;46.65;99790.63;5096819;28;811;-27
2021/08/29 09:01:49;;;;;;;;;;;;;;;21.12;46.67;99792.44;5096092;28;756;-25
2021/08/29 09:04:15;;;;;;;;;;;;;;;21.19;46.75;99794.50;5095770;28;1969;-28
2021/08/29 09:06:40;;;;;;;;;;;;;;;21.18;46.84;99793.63;5094707;28;847;-26
2021/08/29 09:09:05;;;;;;;;;;;;;;;21.17;46.48;99789.28;5094737;28;807;-26
2021/08/29 09:11:34;;;;;;;;;;;;;;;21.11;46.45;99780.09;5093569;28;1009;-26
2021/08/29 09:13:59;;;;;;;;;;;;;;;21.25;46.50;99777.75;5076129;28;1515;-27
2021/08/29 09:16:25;;;;;;;;;;;;;;;21.40;46.03;99785.97;5076101;28;791;-25
2021/08/29 09:19:00;;;;;;;;;;;;;;;21.20;46.38;99774.75;5074152;28;1298;-30
2021/08/29 09:21:26;;;;;;;;;;;;;;;21.13;46.17;99777.25;5076115;28;800;-27
2021/08/29 09:23:51;;;;;;;;;;;;;;;21.16;46.20;99776.91;5075671;28;1906;-28
2021/08/29 09:26:20;;;;;;;;;;;;;;;21.28;46.36;99775.59;5075925;28;950;-30
2021/08/29 09:28:46;;;;;;;;;;;;;;;21.37;46.53;99768.38;5096331;28;795;-31
2021/08/29 09:31:11;;;;;;;;;;;;;;;21.36;46.87;99769.41;5095572;28;782;-27
2021/08/29 09:33:37;;;;;;;;;;;;;;;21.54;46.74;99763.00;5095630;28;803;-26
2021/08/29 09:36:02;;;;;;;;;;;;;;;21.48;46.60;99761.88;5096224;28;775;-28
2021/08/29 09:38:27;;;;;;;;;;;;;;;21.51;46.59;99758.84;5095795;28;855;-26
2021/08/29 09:40:54;;;;;;;;;;;;;;;21.47;47.03;99748.66;5094707;28;1285;-27
2021/08/29 09:43:19;;;;;;;;;;;;;;;21.49;47.22;99760.00;5078500;28;982;-28
2021/08/29 09:45:45;;;;;;;;;;;;;;;21.36;46.94;99755.19;5073963;28;1969;-26
2021/08/29 09:48:14;;;;;;;;;;;;;;;21.17;46.74;99755.34;5075441;28;1403;-26
2021/08/29 09:50:41;;;;;;;;;;;;;;;21.29;46.21;99752.34;5075533;28;855;-29
2021/08/29 09:53:09;;;;;;;;;;;;;;;21.19;45.52;99754.38;5075417;28;1555;-26
2021/08/29 09:55:38;;;;;;;;;;;;;;;21.13;45.11;99754.03;5075625;28;847;-27
2021/08/29 09:58:23;;;;;;;;;;;;;;;20.93;45.31;99742.81;5078439;28;1195;-26
2021/08/29 10:01:11;;;;;;;;;;;;;;;20.77;45.66;99741.75;5089730;28;782;-27
2021/08/29 10:03:46;;;;;;;;;;;;;;;20.78;46.31;99750.63;5075431;28;1906;-28
2021/08/29 10:06:21;;;;;;;;;;;;;;;20.82;45.92;99746.59;5075851;28;819;-27
2021/08/29 10:08:50;;;;;;;;;;;;;;;20.81;45.93;99747.63;5078656;28;1169;-28
2021/08/29 10:11:15;;;;;;;;;;;;;;;20.74;45.62;99741.25;5079034;28;1147;-27
2021/08/29 10:13:41;;;;;;;;;;;;;;;20.62;46.19;99740.75;5078138;28;868;-26
2021/08/29 10:16:06;;;;;;;;;;;;;;;20.61;46.35;99750.59;5079125;28;799;-27
2021/08/29 10:18:33;;;;;;;;;;;;;;;20.41;46.39;99745.53;5079761;28;751;-28
2021/08/29 10:20:58;;;;;;;;;;;;;;;20.53;46.43;99747.91;5077574;28;846;-27
2021/08/29 10:23:23;;;;;;;;;;;;;;;20.50;46.39;99742.88;5076937;28;775;-28
2021/08/29 10:25:49;;;;;;;;;;;;;;;20.60;45.79;99750.75;5077406;28;1901;-27
2021/08/29 10:28:14;;;;;;;;;;;;;;;20.59;45.64;99741.03;5093486;28;962;-24
2021/08/29 10:30:40;;;;;;;;;;;;;;;20.35;45.95;99737.34;5097297;28;839;-28
2021/08/29 10:33:05;;;;;;;;;;;;;;;20.41;45.58;99742.00;5098613;28;870;-28
2021/08/29 10:35:31;;;;;;;;;;;;;;;20.30;45.75;99730.63;5098409;28;823;-31
2021/08/29 10:37:56;;;;;;;;;;;;;;;20.32;45.66;99738.47;5098439;28;889;-26
2021/08/29 10:40:21;;;;;;;;;;;;;;;20.31;46.00;99728.81;5097485;28;883;-26
2021/08/29 10:42:47;;;;;;;;;;;;;;;20.35;46.23;99735.50;5085223;28;985;-28
2021/08/29 10:45:12;;;;;;;;;;;;;;;20.33;46.45;99740.16;5078242;28;1906;-27
2021/08/29 10:47:38;;;;;;;;;;;;;;;20.38;45.82;99745.88;5078951;28;804;-28
2021/08/29 10:50:03;;;;;;;;;;;;;;;20.36;45.96;99737.16;5076210;28;1266;-26
2021/08/29 10:52:30;;;;;;;;;;;;;;;20.46;45.62;99731.69;5078084;28;728;-30
2021/08/29 10:54:55;;;;;;;;;;;;;;;20.45;45.41;99731.84;5078423;28;771;-26
2021/08/29 10:57:28;;;;;;;;;;;;;;;20.50;45.30;99730.34;5087078;28;943;-27
2021/08/29 11:00:17;;;;;;;;;;;;;;;20.28;45.96;99735.31;5098356;28;1537;-29
2021/08/29 11:02:46;;;;;;;;;;;;;;;20.57;45.89;99735.06;5087485;28;1531;-25
2021/08/29 11:05:27;;;;;;;;;;;;;;;20.57;45.38;99735.88;5098128;28;1988;-28
2021/08/29 11:07:52;;;;;;;;;;;;;;;20.58;45.50;99726.88;5098087;28;894;-27
2021/08/29 11:10:36;;;;;;;;;;;;;;;20.80;44.62;99728.06;5098580;28;745;-28
2021/08/29 11:13:17;;;;;;;;;;;;;;;20.76;44.76;99732.09;5083047;28;946;-28
2021/08/29 11:15:42;;;;;;;;;;;;;;;20.74;44.63;99726.06;5076047;28;1474;-27
2021/08/29 11:18:08;;;;;;;;;;;;;;;20.51;44.94;99731.19;5077723;28;812;-27
2021/08/29 11:20:34;;;;;;;;;;;;;;;20.54;44.86;99736.19;5077548;28;823;-25
2021/08/29 11:22:59;;;;;;;;;;;;;;;20.64;44.58;99734.22;5077472;28;766;-28
2021/08/29 11:25:25;;;;;;;;;;;;;;;20.71;44.26;99736.22;5080837;28;1901;-28
2021/08/29 11:27:51;;;;;;;;;;;;;;;20.80;44.78;99721.91;5077847;28;835;-26
2021/08/29 11:30:16;;;;;;;;;;;;;;;20.86;44.49;99723.91;5077249;28;847;-27
2021/08/29 11:32:46;;;;;;;;;;;;;;;20.79;44.47;99728.22;5077278;28;760;-27
2021/08/29 11:35:15;;;;;;;;;;;;;;;20.79;44.68;99725.56;5077273;28;831;-27
2021/08/29 11:37:40;;;;;;;;;;;;;;;20.76;44.62;99723.22;5077420;28;817;-27
2021/08/29 11:40:07;;;;;;;;;;;;;;;20.63;44.87;99729.06;5077309;28;810;-29
2021/08/29 11:42:33;;;;;;;;;;;;;;;20.62;44.78;99736.22;5088053;28;947;-25
2021/08/29 11:44:58;;;;;;;;;;;;;;;20.53;45.07;99732.72;5097415;28;1898;-31
2021/08/29 11:47:44;;;;;;;;;;;;;;;20.66;44.59;99732.22;5097496;28;751;-29
2021/08/29 11:50:10;;;;;;;;;;;;;;;20.78;44.35;99738.09;5097155;28;1360;-28
2021/08/29 11:52:39;;;;;;;;;;;;;;;20.72;44.43;99727.25;5096857;28;822;-24
2021/08/29 11:55:14;;;;;;;;;;;;;;;20.64;44.46;99726.22;5097608;28;821;-27
2021/08/29 11:57:52;;;;;;;;;;;;;;;20.73;44.42;99721.72;5085358;28;918;-26
2021/08/29 12:00:18;;;;;;;;;;;;;;;20.60;44.56;99716.03;5076949;28;752;-29
2021/08/29 12:02:44;;;;;;;;;;;;;;;20.72;44.18;99713.88;5077126;28;736;-26
2021/08/29 12:05:16;;;;;;;;;;;;;;;20.75;43.99;99718.88;5076393;28;1973;-28
2021/08/29 12:07:44;;;;;;;;;;;;;;;20.64;44.26;99707.50;5076695;28;771;-30
2021/08/29 12:10:09;;;;;;;;;;;;;;;20.52;44.73;99709.66;5076952;28;859;-29
2021/08/29 12:12:34;;;;;;;;;;;;;;;20.61;44.42;99705.16;5085927;28;1029;-27
2021/08/29 12:15:00;;;;;;;;;;;;;;;20.51;44.79;99710.66;5095483;28;554;-26
2021/08/29 12:17:25;;;;;;;;;;;;;;;20.61;44.72;99715.00;5095353;28;1329;-29
2021/08/29 12:19:51;;;;;;;;;;;;;;;20.60;44.79;99711.53;5078253;28;1405;-30
2021/08/29 12:22:16;;;;;;;;;;;;;;;20.61;44.90;99710.50;5083624;28;772;-27
2021/08/29 12:24:42;;;;;;;;;;;;;;;20.58;44.79;99712.66;5082508;28;1913;-26
2021/08/29 12:27:17;;;;;;;;;;;;;;;20.71;44.27;99706.84;5089651;28;962;-32
2021/08/29 12:29:42;;;;;;;;;;;;;;;20.65;44.21;99722.53;5075152;28;872;-28
2021/08/29 12:32:08;;;;;;;;;;;;;;;20.55;44.56;99714.66;5076498;28;812;-27
2021/08/29 12:34:33;;;;;;;;;;;;;;;20.61;44.29;99707.00;5085844;28;1274;-26
2021/08/29 12:37:02;;;;;;;;;;;;;;;20.64;44.11;99717.34;5077544;28;1385;-27
2021/08/29 12:39:28;;;;;;;;;;;;;;;20.47;44.67;99714.66;5076545;28;861;-30
2021/08/29 12:41:53;;;;;;;;;;;;;;;20.45;44.50;99707.81;5081850;28;946;-25
2021/08/29 12:44:18;;;;;;;;;;;;;;;20.35;44.88;99711.47;5095884;28;1902;-29
2021/08/29 12:46:43;;;;;;;;;;;;;;;20.31;44.70;99704.75;5095153;28;1156;-27
2021/08/29 12:49:09;;;;;;;;;;;;;;;20.28;44.87;99697.94;5096319;28;1294;-30
2021/08/29 12:51:34;;;;;;;;;;;;;;;20.33;44.79;99696.59;5095240;28;771;-31
2021/08/29 12:53:59;;;;;;;;;;;;;;;20.18;44.90;99686.53;5094772;28;868;-30
2021/08/29 12:56:25;;;;;;;;;;;;;;;20.12;45.13;99682.66;5093162;28;995;-27